createdAt,value
2022-09-09T00:00:15.698Z,16.67
2022-09-09T00:02:49.299Z,16.71
2022-09-09T00:05:40.113Z,16.88
2022-09-09T00:08:08.471Z,17.13
2022-09-09T00:10:37.577Z,17.09
2022-09-09T00:13:25.260Z,17.02
2022-09-09T00:15:59.006Z,17.01
2022-09-09T00:18:33.354Z,16.84
2022-09-09T00:21:07.569Z,16.78
2022-09-09T00:23:37.839Z,16.70
2022-09-09T00:26:20.698Z,16.81
2022-09-09T00:28:56.419Z,16.79
2022-09-09T00:31:26.307Z,16.79
2022-09-09T00:33:53.819Z,16.68
2022-09-09T00:36:23.947Z,16.90
2022-09-09T00:38:57.306Z,16.61
2022-09-09T00:41:25.219Z,16.64
2022-09-09T00:44:02.042Z,16.53
2022-09-09T00:46:30.116Z,16.55
2022-09-09T00:49:00.913Z,16.54
2022-09-09T00:51:31.569Z,16.45
2022-09-09T00:54:06.993Z,16.38
2022-09-09T00:56:43.308Z,16.35
2022-09-09T00:59:28.422Z,16.25
2022-09-09T01:01:57.049Z,16.24
2022-09-09T01:04:28.055Z,16.27
2022-09-09T01:06:57.288Z,16.42
2022-09-09T01:09:27.480Z,16.31
2022-09-09T01:12:07.445Z,16.59
2022-09-09T01:14:38.060Z,16.41
2022-09-09T01:17:33.935Z,16.44
2022-09-09T01:20:20.495Z,16.38
2022-09-09T01:23:05.336Z,16.24
2022-09-09T01:25:45.611Z,16.21
2022-09-09T01:28:24.207Z,16.18
2022-09-09T01:30:53.818Z,16.10
2022-09-09T01:33:24.314Z,16.13
2022-09-09T01:35:52.590Z,16.05
2022-09-09T01:38:21.157Z,16.01
2022-09-09T01:40:53.246Z,15.94
2022-09-09T01:43:25.139Z,16.00
2022-09-09T01:45:55.641Z,16.23
2022-09-09T01:48:23.883Z,16.08
2022-09-09T01:51:01.834Z,16.13
2022-09-09T01:53:29.457Z,16.02
2022-09-09T01:56:09.095Z,16.13
2022-09-09T01:58:44.996Z,16.11
2022-09-09T02:01:12.694Z,16.24
2022-09-09T02:03:40.776Z,16.38
2022-09-09T02:06:18.269Z,16.05
2022-09-09T02:08:50.105Z,16.01
2022-09-09T02:11:22.628Z,15.95
2022-09-09T02:14:22.825Z,16.07
2022-09-09T02:16:56.141Z,15.78
2022-09-09T02:19:33.376Z,15.79
2022-09-09T02:22:21.105Z,15.65
2022-09-09T02:24:49.195Z,15.61
2022-09-09T02:27:23.419Z,15.94
2022-09-09T02:29:51.747Z,15.86
2022-09-09T02:32:25.040Z,15.76
2022-09-09T02:34:57.588Z,15.59
2022-09-09T02:37:26.400Z,15.47
2022-09-09T02:39:55.461Z,15.31
2022-09-09T02:42:25.072Z,15.18
2022-09-09T02:44:55.581Z,15.29
2022-09-09T02:47:40.198Z,15.25
2022-09-09T02:50:21.469Z,15.27
2022-09-09T02:53:08.939Z,15.13
2022-09-09T02:55:47.895Z,14.88
2022-09-09T02:58:18.095Z,14.86
2022-09-09T03:00:54.289Z,14.83
2022-09-09T03:03:24.470Z,14.82
2022-09-09T03:05:52.835Z,14.79
2022-09-09T03:08:21.010Z,14.72
2022-09-09T03:10:51.332Z,14.75
2022-09-09T03:13:20.646Z,14.52
2022-09-09T03:15:49.479Z,14.34
2022-09-09T03:18:20.026Z,14.34
2022-09-09T03:20:52.122Z,14.35
2022-09-09T03:23:22.852Z,14.29
2022-09-09T03:25:51.096Z,14.29
2022-09-09T03:28:22.440Z,14.27
2022-09-09T03:30:51.335Z,14.27
2022-09-09T03:33:19.443Z,14.02
2022-09-09T03:35:49.925Z,14.04
2022-09-09T03:38:20.238Z,14.16
2022-09-09T03:40:52.332Z,14.44
2022-09-09T03:43:21.037Z,14.23
2022-09-09T03:45:49.061Z,14.37
2022-09-09T03:48:17.493Z,14.35
2022-09-09T03:50:45.800Z,14.23
2022-09-09T03:53:13.499Z,14.22
2022-09-09T03:55:44.351Z,14.33
2022-09-09T03:58:12.862Z,14.30
2022-09-09T04:00:44.461Z,14.42
2022-09-09T04:03:12.767Z,14.45
2022-09-09T04:05:43.354Z,14.43
2022-09-09T04:08:12.612Z,14.41
2022-09-09T04:10:41.005Z,14.40
2022-09-09T04:13:09.607Z,14.44
2022-09-09T04:15:37.719Z,14.65
2022-09-09T04:18:05.556Z,14.63
2022-09-09T04:20:34.904Z,14.62
2022-09-09T04:23:02.592Z,14.71
2022-09-09T04:25:30.427Z,14.64
2022-09-09T04:27:58.276Z,14.71
2022-09-09T04:30:25.993Z,14.88
2022-09-09T04:32:55.540Z,15.06
2022-09-09T04:35:23.017Z,15.21
2022-09-09T04:37:50.895Z,15.06
2022-09-09T04:40:18.393Z,15.23
2022-09-09T04:42:48.757Z,15.55
2022-09-09T04:45:16.348Z,15.43
2022-09-09T04:47:43.914Z,15.30
2022-09-09T04:50:11.665Z,15.32
2022-09-09T04:52:39.379Z,15.53
2022-09-09T04:55:08.258Z,15.42
2022-09-09T04:57:35.926Z,15.47
2022-09-09T05:00:04.395Z,15.48
2022-09-09T05:02:39.173Z,15.70
2022-09-09T05:05:07.174Z,15.81
2022-09-09T05:07:35.213Z,15.80
2022-09-09T05:10:06.991Z,15.93
2022-09-09T05:12:34.762Z,15.95
2022-09-09T05:15:04.245Z,16.15
2022-09-09T05:17:31.792Z,16.03
2022-09-09T05:19:59.885Z,16.25
2022-09-09T05:22:27.424Z,16.22
2022-09-09T05:24:55.196Z,16.49
2022-09-09T05:27:23.633Z,16.39
2022-09-09T05:29:51.724Z,16.60
2022-09-09T05:32:19.256Z,16.45
2022-09-09T05:34:49.497Z,16.29
2022-09-09T05:37:17.933Z,16.61
2022-09-09T05:39:45.651Z,16.53
2022-09-09T05:42:13.628Z,16.87
2022-09-09T05:44:44.408Z,17.05
2022-09-09T05:47:12.929Z,17.03
2022-09-09T05:49:41.065Z,17.01
2022-09-09T05:52:10.918Z,16.90
2022-09-09T05:54:39.373Z,17.29
2022-09-09T05:57:07.110Z,17.28
2022-09-09T05:59:36.880Z,17.50
2022-09-09T06:02:04.395Z,17.53
2022-09-09T06:04:37.197Z,17.54
2022-09-09T06:07:06.084Z,17.66
2022-09-09T06:09:35.293Z,17.75
2022-09-09T06:12:03.829Z,17.60
2022-09-09T06:14:35.322Z,17.95
2022-09-09T06:17:03.590Z,17.71
2022-09-09T06:19:32.139Z,17.97
2022-09-09T06:22:00.830Z,17.75
2022-09-09T06:24:31.461Z,17.82
2022-09-09T06:27:01.398Z,17.90
2022-09-09T06:29:33.590Z,17.91
2022-09-09T06:32:03.662Z,18.29
2022-09-09T06:34:32.109Z,18.28
2022-09-09T06:37:00.973Z,18.21
2022-09-09T06:39:37.920Z,18.43
2022-09-09T06:42:06.001Z,18.61
2022-09-09T06:44:51.631Z,18.54
2022-09-09T06:47:31.412Z,18.89
2022-09-09T06:50:00.042Z,18.62
2022-09-09T06:52:28.366Z,18.75
2022-09-09T06:54:59.692Z,18.69
2022-09-09T06:57:36.825Z,18.75
2022-09-09T07:00:09.786Z,18.80
2022-09-09T07:02:40.824Z,18.98
2022-09-09T07:05:10.535Z,19.10
2022-09-09T07:07:40.097Z,19.43
2022-09-09T07:10:12.215Z,19.02
2022-09-09T07:12:42.628Z,18.95
2022-09-09T07:15:12.805Z,19.22
2022-09-09T07:17:44.315Z,19.32
2022-09-09T07:20:12.885Z,19.71
2022-09-09T07:22:44.190Z,20.45
2022-09-09T07:25:12.669Z,24.01
2022-09-09T07:27:40.065Z,25.10
2022-09-09T07:30:08.098Z,27.68
2022-09-09T07:32:36.880Z,29.22
2022-09-09T07:35:04.491Z,31.09
2022-09-09T07:37:33.182Z,29.86
2022-09-09T07:40:00.979Z,31.55
2022-09-09T07:42:32.139Z,32.25
2022-09-09T07:45:00.771Z,31.85
2022-09-09T07:47:40.093Z,33.27
2022-09-09T07:50:07.822Z,33.37
2022-09-09T07:52:35.887Z,33.94
2022-09-09T07:55:07.248Z,33.13
2022-09-09T07:57:36.481Z,32.47
2022-09-09T08:00:08.311Z,31.38
2022-09-09T08:02:45.009Z,31.53
2022-09-09T08:05:13.885Z,31.74
2022-09-09T08:07:42.841Z,32.54
2022-09-09T08:10:10.618Z,31.85
2022-09-09T08:12:56.259Z,33.15
2022-09-09T08:15:32.180Z,32.71
2022-09-09T08:18:01.030Z,32.60
2022-09-09T08:20:30.098Z,32.30
2022-09-09T08:22:59.534Z,31.13
2022-09-09T08:25:27.084Z,31.45
2022-09-09T08:28:02.885Z,33.05
2022-09-09T08:30:31.580Z,32.34
2022-09-09T08:33:01.127Z,32.64
2022-09-09T08:35:33.727Z,32.15
2022-09-09T08:38:10.789Z,30.87
2022-09-09T08:40:40.632Z,32.40
2022-09-09T08:43:09.535Z,30.63
2022-09-09T08:45:45.818Z,31.50
2022-09-09T08:48:14.713Z,30.02
2022-09-09T08:50:43.487Z,30.34
2022-09-09T08:53:21.253Z,30.02
2022-09-09T08:55:50.281Z,29.36
2022-09-09T08:58:24.477Z,29.33
2022-09-09T09:01:03.655Z,29.51
2022-09-09T09:03:40.404Z,29.92
2022-09-09T09:06:08.143Z,28.73
2022-09-09T09:08:46.759Z,30.25
2022-09-09T09:11:14.814Z,29.83
2022-09-09T09:13:49.960Z,29.37
2022-09-09T09:16:22.254Z,29.80
2022-09-09T09:18:52.283Z,28.89
2022-09-09T09:21:34.136Z,28.61
2022-09-09T09:24:01.989Z,28.25
2022-09-09T09:26:34.607Z,28.25
2022-09-09T09:29:05.181Z,27.17
2022-09-09T09:31:33.125Z,26.95
2022-09-09T09:34:01.289Z,26.75
2022-09-09T09:36:35.803Z,26.62
2022-09-09T09:41:55.780Z,26.56
2022-09-09T09:44:26.413Z,26.25
2022-09-09T09:46:54.271Z,26.25
2022-09-09T09:49:22.430Z,25.65
2022-09-09T09:51:49.886Z,26.33
2022-09-09T09:54:38.832Z,26.53
2022-09-09T09:57:13.407Z,26.00
2022-09-09T09:59:43.938Z,26.11
2022-09-09T10:02:27.900Z,26.24
2022-09-09T10:05:02.987Z,26.01
2022-09-09T10:07:31.158Z,25.95
2022-09-09T10:09:59.256Z,25.57
2022-09-09T10:12:30.085Z,25.17
2022-09-09T10:15:08.298Z,25.23
2022-09-09T10:17:42.535Z,25.47
2022-09-09T10:20:33.125Z,25.51
2022-09-09T10:23:12.901Z,25.40
2022-09-09T10:26:00.776Z,25.12
2022-09-09T10:28:35.090Z,25.51
2022-09-09T10:31:18.389Z,25.59
2022-09-09T10:33:51.064Z,25.83
2022-09-09T10:36:22.093Z,25.78
2022-09-09T10:38:53.691Z,26.28
2022-09-09T10:41:25.382Z,26.48
2022-09-09T10:44:14.406Z,26.40
2022-09-09T10:46:45.265Z,26.06
2022-09-09T10:49:24.566Z,25.35
2022-09-09T10:51:51.970Z,25.12
2022-09-09T10:54:20.451Z,24.47
2022-09-09T10:56:50.704Z,24.86
2022-09-09T10:59:19.588Z,24.45
2022-09-09T11:01:47.603Z,24.53
2022-09-09T11:04:15.293Z,24.45
2022-09-09T11:06:43.670Z,24.35
2022-09-09T11:09:15.650Z,24.57
2022-09-09T11:11:44.334Z,25.15
2022-09-09T11:14:13.691Z,25.37
2022-09-09T11:16:43.018Z,25.53
2022-09-09T11:19:35.276Z,25.48
2022-09-09T11:22:30.558Z,25.00
2022-09-09T11:25:09.674Z,25.31
2022-09-09T11:27:57.976Z,25.23
2022-09-09T11:33:25.345Z,24.93
2022-09-09T11:36:07.216Z,25.14
2022-09-09T11:38:41.272Z,25.50
2022-09-09T11:41:10.741Z,25.58
2022-09-09T11:43:48.897Z,25.94
2022-09-09T11:46:17.087Z,25.87
2022-09-09T11:48:59.032Z,25.68
2022-09-09T11:51:27.479Z,25.62
2022-09-09T11:53:59.751Z,25.54
2022-09-09T11:56:44.632Z,25.52
2022-09-09T11:59:22.977Z,25.14
2022-09-09T12:01:51.163Z,24.67
2022-09-09T12:04:22.342Z,24.27
2022-09-09T12:06:57.779Z,24.34
2022-09-09T12:09:33.020Z,24.12
2022-09-09T12:12:12.634Z,24.41
2022-09-09T12:14:42.239Z,24.42
2022-09-09T12:17:20.216Z,24.61
2022-09-09T12:19:49.501Z,25.15
2022-09-09T12:22:41.374Z,25.09
2022-09-09T12:25:23.272Z,25.16
2022-09-09T12:28:00.296Z,25.18
2022-09-09T12:30:31.110Z,25.07
2022-09-09T12:33:10.073Z,25.31
2022-09-09T12:35:39.658Z,24.92
2022-09-09T12:38:08.534Z,25.19
2022-09-09T12:40:36.679Z,24.47
2022-09-09T12:43:21.847Z,24.66
2022-09-09T12:45:51.551Z,24.78
2022-09-09T12:48:19.870Z,24.91
2022-09-09T12:50:51.143Z,24.80
2022-09-09T12:53:29.356Z,24.72
2022-09-09T12:56:04.555Z,24.76
2022-09-09T12:58:35.833Z,24.03
2022-09-09T13:01:07.108Z,24.08
2022-09-09T13:03:35.120Z,24.00
2022-09-09T13:06:13.323Z,24.14
2022-09-09T13:08:41.196Z,24.35
2022-09-09T13:11:10.388Z,24.03
2022-09-09T13:13:39.342Z,24.46
2022-09-09T13:16:09.493Z,24.64
2022-09-09T13:18:39.785Z,24.13
2022-09-09T13:21:07.434Z,24.20
2022-09-09T13:23:36.293Z,24.28
2022-09-09T13:26:08.866Z,23.91
2022-09-09T13:28:36.414Z,23.86
2022-09-09T13:31:04.629Z,23.70
2022-09-09T13:33:33.291Z,23.83
2022-09-09T13:36:01.514Z,23.73
2022-09-09T13:38:29.297Z,24.08
2022-09-09T13:40:58.674Z,24.17
2022-09-09T13:43:27.785Z,24.21
2022-09-09T13:45:57.605Z,24.34
2022-09-09T13:48:25.364Z,23.98
2022-09-09T13:50:59.909Z,23.90
2022-09-09T13:53:27.754Z,24.16
2022-09-09T13:55:55.454Z,24.22
2022-09-09T13:58:23.936Z,23.99
2022-09-09T14:00:51.395Z,23.93
2022-09-09T14:03:19.161Z,23.48
2022-09-09T14:05:46.912Z,23.81
2022-09-09T14:08:16.823Z,23.57
2022-09-09T14:10:45.295Z,23.24
2022-09-09T14:13:13.760Z,23.00
2022-09-09T14:15:41.529Z,23.40
2022-09-09T14:18:10.772Z,23.45
2022-09-09T14:20:38.662Z,23.47
2022-09-09T14:23:06.167Z,23.62
2022-09-09T14:25:34.644Z,23.44
2022-09-09T14:28:03.082Z,23.36
2022-09-09T14:30:31.255Z,23.27
2022-09-09T14:32:58.767Z,23.11
2022-09-09T14:35:26.276Z,23.16
2022-09-09T14:37:53.712Z,23.33
2022-09-09T14:40:21.372Z,22.73
2022-09-09T14:42:48.811Z,22.61
2022-09-09T14:45:16.535Z,22.52
2022-09-09T14:47:43.977Z,22.51
2022-09-09T14:50:11.395Z,22.45
2022-09-09T14:52:39.031Z,22.54
2022-09-09T14:55:07.362Z,22.49
2022-09-09T14:57:37.836Z,22.66
2022-09-09T15:00:30.188Z,22.38
2022-09-09T15:02:57.629Z,22.49
2022-09-09T15:05:25.676Z,22.26
2022-09-09T15:07:54.367Z,22.05
2022-09-09T15:10:22.386Z,22.13
2022-09-09T15:12:49.812Z,21.82
2022-09-09T15:15:17.445Z,21.90
2022-09-09T15:17:44.832Z,21.93
2022-09-09T15:20:13.788Z,22.06
2022-09-09T15:22:42.324Z,21.83
2022-09-09T15:25:10.046Z,21.69
2022-09-09T15:27:39.755Z,21.82
2022-09-09T15:30:07.565Z,21.68
2022-09-09T15:32:35.393Z,21.70
2022-09-09T15:35:03.111Z,21.70
2022-09-09T18:15:49.668Z,18.33
2022-09-09T18:18:17.293Z,18.24
2022-09-09T18:20:45.122Z,18.46
2022-09-09T18:23:12.782Z,18.61
2022-09-09T18:25:40.682Z,18.25
2022-09-09T18:28:08.697Z,18.30
2022-09-09T18:30:40.203Z,18.26
2022-09-09T18:33:07.547Z,18.05
2022-09-09T18:35:37.986Z,18.16
2022-09-09T18:38:05.360Z,18.03
2022-09-09T18:40:32.702Z,17.94
2022-09-09T18:43:00.117Z,18.00
2022-09-09T18:45:27.512Z,17.87
2022-09-09T18:47:56.445Z,17.66
2022-09-09T18:50:23.932Z,17.95
2022-09-09T18:52:52.982Z,17.80
2022-09-09T18:55:20.435Z,17.72
2022-09-09T18:57:48.475Z,17.90
2022-09-09T19:00:16.088Z,17.81
2022-09-09T19:02:43.596Z,17.77
2022-09-09T19:05:11.528Z,17.58
2022-09-09T19:07:41.421Z,17.62
2022-09-09T19:10:09.065Z,17.60
2022-09-09T19:12:36.591Z,17.66
2022-09-09T19:15:04.219Z,17.46
2022-09-09T19:17:35.955Z,17.46
2022-09-09T19:20:04.132Z,17.34
2022-09-09T19:22:32.713Z,17.16
2022-09-09T19:25:00.106Z,17.03
2022-09-09T19:27:27.701Z,17.30
2022-09-09T19:29:58.203Z,17.19
2022-09-09T19:35:13.252Z,17.12
2022-09-09T19:37:41.285Z,17.01
2022-09-09T19:40:11.396Z,16.95
2022-09-09T19:42:40.857Z,16.88
2022-09-09T19:45:09.577Z,16.83
2022-09-09T19:47:40.442Z,16.95
2022-09-09T19:50:08.086Z,16.82
2022-09-09T19:52:35.967Z,17.12
2022-09-09T19:55:09.567Z,16.91
2022-09-09T19:57:37.122Z,16.74
2022-09-09T20:00:04.699Z,16.85
2022-09-09T20:02:40.051Z,16.67
2022-09-09T20:05:07.859Z,17.01
2022-09-09T20:07:35.280Z,16.81
2022-09-09T20:10:02.836Z,16.81
2022-09-09T20:12:30.648Z,16.75
2022-09-09T20:14:58.354Z,16.86
2022-09-09T20:17:25.846Z,16.79
2022-09-09T20:19:53.452Z,16.90
2022-09-09T20:22:21.127Z,16.68
2022-09-09T20:24:48.682Z,16.70
2022-09-09T20:27:16.751Z,16.66
2022-09-09T20:29:45.960Z,16.71
2022-09-09T20:32:13.403Z,16.59
2022-09-09T20:34:43.182Z,16.54
2022-09-09T20:37:12.623Z,16.41
2022-09-09T20:39:40.251Z,16.53
2022-09-09T20:42:08.408Z,16.31
2022-09-09T20:44:37.329Z,16.27
2022-09-09T20:47:07.173Z,16.28
2022-09-09T20:49:35.364Z,16.34
2022-09-09T20:52:02.945Z,16.26
2022-09-09T20:54:30.681Z,16.07
2022-09-09T20:56:59.078Z,16.30
2022-09-09T20:59:27.011Z,16.19
2022-09-09T21:01:55.122Z,16.36
2022-09-09T21:04:22.751Z,16.23
2022-09-09T21:06:51.255Z,16.27
2022-09-09T21:09:19.494Z,16.04
2022-09-09T21:11:47.322Z,16.08
2022-09-09T21:14:14.868Z,16.05
2022-09-09T21:16:42.512Z,16.12
2022-09-09T21:19:10.048Z,16.12
2022-09-09T21:21:37.558Z,16.28
2022-09-09T21:24:05.035Z,16.08
2022-09-09T21:26:32.340Z,16.21
2022-09-09T21:28:59.790Z,16.00
2022-09-09T21:31:28.526Z,15.98
2022-09-09T21:33:56.594Z,15.94
2022-09-09T21:36:24.215Z,16.02
2022-09-09T21:38:51.652Z,15.99
2022-09-09T21:41:19.503Z,15.85
2022-09-09T21:43:50.981Z,15.99
2022-09-09T21:46:23.549Z,15.76
2022-09-09T21:48:51.775Z,15.88
2022-09-09T21:51:19.172Z,15.84
2022-09-09T21:53:46.731Z,15.78
2022-09-09T21:56:15.306Z,15.92
2022-09-09T21:58:42.836Z,15.84
2022-09-09T22:01:11.214Z,15.92
2022-09-09T22:03:39.153Z,15.76
2022-09-09T22:06:06.977Z,15.83
2022-09-09T22:08:34.477Z,15.74
2022-09-09T22:11:11.885Z,15.87
2022-09-09T22:13:43.208Z,16.13
2022-09-09T22:16:12.320Z,15.92
2022-09-09T22:18:40.350Z,15.81
2022-09-09T22:21:08.229Z,15.84
2022-09-09T22:23:36.786Z,15.83
2022-09-09T22:26:05.856Z,15.53
2022-09-09T22:28:34.037Z,15.57
2022-09-09T22:31:01.567Z,15.68
2022-09-09T22:33:29.158Z,15.48
2022-09-09T22:35:58.906Z,15.55
2022-09-09T22:38:27.146Z,15.51
2022-09-09T22:40:54.829Z,15.32
2022-09-09T22:43:23.123Z,15.48
2022-09-09T22:45:51.191Z,15.52
2022-09-09T22:48:18.873Z,15.29
2022-09-09T22:50:46.924Z,15.37
2022-09-09T22:53:14.892Z,15.28
2022-09-09T22:55:43.534Z,15.33
2022-09-09T22:58:11.143Z,15.37
2022-09-09T23:00:40.247Z,15.17
2022-09-09T23:03:08.070Z,15.20
2022-09-09T23:05:38.643Z,15.29
2022-09-09T23:08:06.201Z,15.15
2022-09-09T23:10:34.674Z,15.05
2022-09-09T23:13:02.155Z,15.06
2022-09-09T23:15:31.493Z,14.88
2022-09-09T23:17:58.966Z,15.06
2022-09-09T23:20:28.079Z,15.02
2022-09-09T23:22:56.090Z,14.95
2022-09-09T23:25:23.438Z,14.80
2022-09-09T23:27:51.306Z,14.83
2022-09-09T23:30:18.752Z,14.88
2022-09-09T23:32:48.868Z,15.00
2022-09-09T23:35:16.410Z,14.87
2022-09-09T23:37:43.696Z,14.69
2022-09-09T23:40:13.057Z,14.83
2022-09-09T23:42:40.646Z,14.64
2022-09-09T23:45:08.252Z,14.84
2022-09-09T23:47:36.202Z,14.64
2022-09-09T23:50:03.755Z,14.82
2022-09-09T23:52:31.757Z,14.53
2022-09-09T23:54:59.617Z,14.61
2022-09-09T23:57:27.127Z,14.72
2022-09-09T23:59:54.622Z,14.73
